首页
METAR-TAF:

METAR-TAF

机场 :

哈尔滨太平国际机场

哈尔滨, 中华人民共和国

纬度: 45-45N, 经度: 126-46E, 海拔: 143米

当前天气观测

该预报发布于1小时和1分钟前的17:00 UTC
风速2节,风向北转东北
温度 17°C
湿度 77%
气压 1004 hPa
能见度10公里或以上
1500米以下无云,无积雨云

METAR: ZYHB 231700Z 02001MPS CAVOK 17/13 Q1004 NOSIG

时间: 02:01 (18:01 UTC)

预报

该预报发布于3小时和0分钟前的15:01 UTC
预报有效从23日的 18点(UTC)到 24日的 18点(UTC)
风速8节,风向北转东北
能見度: 6000
散云层高于3000英尺
成为
从 24日的 11点(UTC)到 24日的 12点(UTC)
风速10节,风向

TAF: ZYHB 231501Z 2318/2418 03004MPS 6000 SCT030 TX27/2406Z TN14/2321Z BECMG 2411/2412 10005MPS

超过4000个机场的气象观测和天气预报(METAR&TAF报告)。

可查询的气象台以黄色和红色小点在地图上表示。

将鼠标移到小点上方,可查看气象台名称。

然后点击查看天气观测和预报。

如需切换地图:点击带黑十字的绿色按钮放大地图;点击带横线的绿色按钮缩小地图;或者点击绿色箭头查看邻近地区的地图。


METAR-TAF: